sensor_id;sensor_type;location;lat;lon;timestamp;pressure;altitude;pressure_sealevel;temperature
11321;BMP180;5715;48.234;14.320;2024-02-23T00:01:01;96389.00;;;15.70
11321;BMP180;5715;48.234;14.320;2024-02-23T00:03:48;96387.00;;;15.70
11321;BMP180;5715;48.234;14.320;2024-02-23T00:06:36;96369.00;;;15.60
11321;BMP180;5715;48.234;14.320;2024-02-23T00:09:24;96375.00;;;15.60
11321;BMP180;5715;48.234;14.320;2024-02-23T00:12:11;96380.00;;;15.60
11321;BMP180;5715;48.234;14.320;2024-02-23T00:15:01;96386.00;;;15.60
11321;BMP180;5715;48.234;14.320;2024-02-23T00:17:49;96381.00;;;15.60
11321;BMP180;5715;48.234;14.320;2024-02-23T00:20:36;96384.00;;;15.50
11321;BMP180;5715;48.234;14.320;2024-02-23T00:23:24;96395.00;;;15.40
11321;BMP180;5715;48.234;14.320;2024-02-23T00:26:12;96385.00;;;15.50
11321;BMP180;5715;48.234;14.320;2024-02-23T00:28:59;96398.00;;;15.50
11321;BMP180;5715;48.234;14.320;2024-02-23T00:31:47;96416.00;;;15.60
11321;BMP180;5715;48.234;14.320;2024-02-23T00:34:35;96439.00;;;15.60
11321;BMP180;5715;48.234;14.320;2024-02-23T00:37:23;96444.00;;;15.60
11321;BMP180;5715;48.234;14.320;2024-02-23T00:40:11;96446.00;;;15.50
11321;BMP180;5715;48.234;14.320;2024-02-23T00:42:59;96443.00;;;15.50
11321;BMP180;5715;48.234;14.320;2024-02-23T00:45:48;96455.00;;;15.60
11321;BMP180;5715;48.234;14.320;2024-02-23T00:48:35;96454.00;;;15.70
11321;BMP180;5715;48.234;14.320;2024-02-23T00:51:23;96449.00;;;15.80
11321;BMP180;5715;48.234;14.320;2024-02-23T00:54:11;96449.00;;;15.80
11321;BMP180;5715;48.234;14.320;2024-02-23T00:56:58;96454.00;;;15.70
11321;BMP180;5715;48.234;14.320;2024-02-23T00:59:46;96445.00;;;15.80
11321;BMP180;5715;48.234;14.320;2024-02-23T01:02:34;96476.00;;;15.80
11321;BMP180;5715;48.234;14.320;2024-02-23T01:05:22;96505.00;;;15.80
11321;BMP180;5715;48.234;14.320;2024-02-23T01:08:09;96493.00;;;15.70
11321;BMP180;5715;48.234;14.320;2024-02-23T01:10:57;96504.00;;;15.50
11321;BMP180;5715;48.234;14.320;2024-02-23T01:13:45;96523.00;;;15.50
11321;BMP180;5715;48.234;14.320;2024-02-23T01:16:32;96534.00;;;15.40
11321;BMP180;5715;48.234;14.320;2024-02-23T01:19:20;96542.00;;;15.80
11321;BMP180;5715;48.234;14.320;2024-02-23T01:22:08;96533.00;;;15.80
11321;BMP180;5715;48.234;14.320;2024-02-23T01:24:56;96558.00;;;15.60
11321;BMP180;5715;48.234;14.320;2024-02-23T01:27:44;96569.00;;;15.70
11321;BMP180;5715;48.234;14.320;2024-02-23T01:30:32;96561.00;;;15.90
11321;BMP180;5715;48.234;14.320;2024-02-23T01:33:19;96587.00;;;15.80
11321;BMP180;5715;48.234;14.320;2024-02-23T01:36:07;96578.00;;;16.00
11321;BMP180;5715;48.234;14.320;2024-02-23T01:38:55;96587.00;;;15.90
11321;BMP180;5715;48.234;14.320;2024-02-23T01:41:42;96588.00;;;15.90
11321;BMP180;5715;48.234;14.320;2024-02-23T01:44:31;96601.00;;;16.00
11321;BMP180;5715;48.234;14.320;2024-02-23T01:47:19;96623.00;;;16.00
11321;BMP180;5715;48.234;14.320;2024-02-23T01:50:08;96655.00;;;16.20
11321;BMP180;5715;48.234;14.320;2024-02-23T01:53:00;96711.00;;;16.10
11321;BMP180;5715;48.234;14.320;2024-02-23T01:55:49;96754.00;;;15.60
11321;BMP180;5715;48.234;14.320;2024-02-23T01:58:38;96767.00;;;15.90
11321;BMP180;5715;48.234;14.320;2024-02-23T02:01:27;96744.00;;;15.50
11321;BMP180;5715;48.234;14.320;2024-02-23T02:04:14;96739.00;;;15.70
11321;BMP180;5715;48.234;14.320;2024-02-23T02:07:03;96729.00;;;16.00
11321;BMP180;5715;48.234;14.320;2024-02-23T02:09:51;96733.00;;;16.00
11321;BMP180;5715;48.234;14.320;2024-02-23T02:12:39;96732.00;;;15.70
11321;BMP180;5715;48.234;14.320;2024-02-23T02:15:27;96743.00;;;16.10
11321;BMP180;5715;48.234;14.320;2024-02-23T02:18:15;96748.00;;;16.10
11321;BMP180;5715;48.234;14.320;2024-02-23T02:21:03;96746.00;;;16.20
11321;BMP180;5715;48.234;14.320;2024-02-23T02:23:50;96752.00;;;16.20
11321;BMP180;5715;48.234;14.320;2024-02-23T02:26:38;96757.00;;;16.20
11321;BMP180;5715;48.234;14.320;2024-02-23T02:29:25;96758.00;;;16.20
11321;BMP180;5715;48.234;14.320;2024-02-23T02:32:13;96759.00;;;16.30
11321;BMP180;5715;48.234;14.320;2024-02-23T02:35:01;96761.00;;;16.40
11321;BMP180;5715;48.234;14.320;2024-02-23T02:37:48;96764.00;;;16.40
11321;BMP180;5715;48.234;14.320;2024-02-23T02:40:37;96766.00;;;16.30
11321;BMP180;5715;48.234;14.320;2024-02-23T02:43:25;96764.00;;;16.40
11321;BMP180;5715;48.234;14.320;2024-02-23T02:46:13;96768.00;;;16.30
11321;BMP180;5715;48.234;14.320;2024-02-23T02:49:01;96768.00;;;16.30
11321;BMP180;5715;48.234;14.320;2024-02-23T02:51:49;96775.00;;;16.40
11321;BMP180;5715;48.234;14.320;2024-02-23T02:54:37;96782.00;;;16.50
11321;BMP180;5715;48.234;14.320;2024-02-23T02:57:24;96792.00;;;16.60
11321;BMP180;5715;48.234;14.320;2024-02-23T03:00:12;96792.00;;;16.60
11321;BMP180;5715;48.234;14.320;2024-02-23T03:03:00;96788.00;;;16.60
11321;BMP180;5715;48.234;14.320;2024-02-23T03:05:48;96795.00;;;16.50
11321;BMP180;5715;48.234;14.320;2024-02-23T03:08:35;96810.00;;;16.40
11321;BMP180;5715;48.234;14.320;2024-02-23T03:11:23;96809.00;;;16.50
11321;BMP180;5715;48.234;14.320;2024-02-23T03:14:11;96818.00;;;16.40
11321;BMP180;5715;48.234;14.320;2024-02-23T03:17:00;96820.00;;;16.40
11321;BMP180;5715;48.234;14.320;2024-02-23T03:19:47;96823.00;;;16.50
11321;BMP180;5715;48.234;14.320;2024-02-23T03:22:38;96822.00;;;16.40
11321;BMP180;5715;48.234;14.320;2024-02-23T03:25:26;96818.00;;;16.40
11321;BMP180;5715;48.234;14.320;2024-02-23T03:28:13;96828.00;;;16.20
11321;BMP180;5715;48.234;14.320;2024-02-23T03:31:01;96820.00;;;16.30
11321;BMP180;5715;48.234;14.320;2024-02-23T03:33:48;96819.00;;;16.30
11321;BMP180;5715;48.234;14.320;2024-02-23T03:36:36;96815.00;;;16.40
11321;BMP180;5715;48.234;14.320;2024-02-23T03:39:24;96815.00;;;16.40
11321;BMP180;5715;48.234;14.320;2024-02-23T03:42:12;96814.00;;;16.30
11321;BMP180;5715;48.234;14.320;2024-02-23T03:45:00;96817.00;;;16.40
11321;BMP180;5715;48.234;14.320;2024-02-23T03:47:47;96832.00;;;16.50
11321;BMP180;5715;48.234;14.320;2024-02-23T03:50:35;96827.00;;;16.50
11321;BMP180;5715;48.234;14.320;2024-02-23T03:53:23;96831.00;;;16.40
11321;BMP180;5715;48.234;14.320;2024-02-23T03:56:10;96830.00;;;16.40
11321;BMP180;5715;48.234;14.320;2024-02-23T03:58:58;96841.00;;;16.40
11321;BMP180;5715;48.234;14.320;2024-02-23T04:01:46;96843.00;;;16.50
11321;BMP180;5715;48.234;14.320;2024-02-23T04:04:33;96849.00;;;16.50
11321;BMP180;5715;48.234;14.320;2024-02-23T04:07:21;96844.00;;;16.30
11321;BMP180;5715;48.234;14.320;2024-02-23T04:10:09;96857.00;;;16.50
11321;BMP180;5715;48.234;14.320;2024-02-23T04:12:58;96856.00;;;16.50
11321;BMP180;5715;48.234;14.320;2024-02-23T04:15:45;96863.00;;;16.40
11321;BMP180;5715;48.234;14.320;2024-02-23T04:18:33;96867.00;;;16.50
11321;BMP180;5715;48.234;14.320;2024-02-23T04:21:21;96866.00;;;16.40
11321;BMP180;5715;48.234;14.320;2024-02-23T04:24:08;96862.00;;;16.40
11321;BMP180;5715;48.234;14.320;2024-02-23T04:26:56;96865.00;;;16.50
11321;BMP180;5715;48.234;14.320;2024-02-23T04:29:43;96860.00;;;16.30
11321;BMP180;5715;48.234;14.320;2024-02-23T04:32:31;96855.00;;;16.50
11321;BMP180;5715;48.234;14.320;2024-02-23T04:35:19;96869.00;;;16.40
11321;BMP180;5715;48.234;14.320;2024-02-23T04:38:06;96876.00;;;16.20
11321;BMP180;5715;48.234;14.320;2024-02-23T04:40:54;96882.00;;;16.40
11321;BMP180;5715;48.234;14.320;2024-02-23T04:43:42;96878.00;;;16.60
11321;BMP180;5715;48.234;14.320;2024-02-23T04:46:31;96879.00;;;16.50
11321;BMP180;5715;48.234;14.320;2024-02-23T04:49:19;96865.00;;;16.40
11321;BMP180;5715;48.234;14.320;2024-02-23T04:52:08;96869.00;;;16.40
11321;BMP180;5715;48.234;14.320;2024-02-23T04:54:56;96874.00;;;16.40
11321;BMP180;5715;48.234;14.320;2024-02-23T04:57:43;96877.00;;;16.60
11321;BMP180;5715;48.234;14.320;2024-02-23T05:00:31;96879.00;;;16.60
11321;BMP180;5715;48.234;14.320;2024-02-23T05:03:20;96878.00;;;16.50
11321;BMP180;5715;48.234;14.320;2024-02-23T05:06:08;96880.00;;;16.60
11321;BMP180;5715;48.234;14.320;2024-02-23T05:08:56;96875.00;;;16.40
11321;BMP180;5715;48.234;14.320;2024-02-23T05:11:43;96885.00;;;16.50
11321;BMP180;5715;48.234;14.320;2024-02-23T05:14:33;96873.00;;;16.60
11321;BMP180;5715;48.234;14.320;2024-02-23T05:17:21;96871.00;;;16.40
11321;BMP180;5715;48.234;14.320;2024-02-23T05:20:09;96877.00;;;16.40
11321;BMP180;5715;48.234;14.320;2024-02-23T05:22:58;96874.00;;;16.40
11321;BMP180;5715;48.234;14.320;2024-02-23T05:25:45;96883.00;;;16.60
11321;BMP180;5715;48.234;14.320;2024-02-23T05:28:33;96873.00;;;16.30
11321;BMP180;5715;48.234;14.320;2024-02-23T05:31:47;96864.00;;;16.40
11321;BMP180;5715;48.234;14.320;2024-02-23T05:34:35;96867.00;;;16.60
11321;BMP180;5715;48.234;14.320;2024-02-23T05:37:23;96877.00;;;16.50
11321;BMP180;5715;48.234;14.320;2024-02-23T05:40:11;96873.00;;;16.40
11321;BMP180;5715;48.234;14.320;2024-02-23T05:42:59;96876.00;;;16.20
11321;BMP180;5715;48.234;14.320;2024-02-23T05:45:47;96889.00;;;16.50
11321;BMP180;5715;48.234;14.320;2024-02-23T05:48:35;96889.00;;;16.40
11321;BMP180;5715;48.234;14.320;2024-02-23T05:51:22;96899.00;;;16.60
11321;BMP180;5715;48.234;14.320;2024-02-23T05:54:10;96891.00;;;16.40
11321;BMP180;5715;48.234;14.320;2024-02-23T05:56:58;96886.00;;;16.60
11321;BMP180;5715;48.234;14.320;2024-02-23T05:59:45;96893.00;;;16.70
11321;BMP180;5715;48.234;14.320;2024-02-23T06:02:33;96878.00;;;16.50
11321;BMP180;5715;48.234;14.320;2024-02-23T06:05:21;96903.00;;;16.90
11321;BMP180;5715;48.234;14.320;2024-02-23T06:08:10;96928.00;;;16.50
11321;BMP180;5715;48.234;14.320;2024-02-23T06:10:58;96927.00;;;15.70
11321;BMP180;5715;48.234;14.320;2024-02-23T06:13:47;96948.00;;;15.40
11321;BMP180;5715;48.234;14.320;2024-02-23T06:16:36;96956.00;;;15.60
11321;BMP180;5715;48.234;14.320;2024-02-23T06:19:25;96953.00;;;15.10
11321;BMP180;5715;48.234;14.320;2024-02-23T06:22:12;96958.00;;;15.20
11321;BMP180;5715;48.234;14.320;2024-02-23T06:25:01;96964.00;;;15.00
11321;BMP180;5715;48.234;14.320;2024-02-23T06:27:49;96962.00;;;14.90
11321;BMP180;5715;48.234;14.320;2024-02-23T06:30:37;96966.00;;;15.20
11321;BMP180;5715;48.234;14.320;2024-02-23T06:33:25;96967.00;;;15.30
11321;BMP180;5715;48.234;14.320;2024-02-23T06:36:12;96977.00;;;15.60
11321;BMP180;5715;48.234;14.320;2024-02-23T06:39:00;96971.00;;;15.50
11321;BMP180;5715;48.234;14.320;2024-02-23T06:41:48;96977.00;;;15.30
11321;BMP180;5715;48.234;14.320;2024-02-23T06:44:35;96974.00;;;15.20
11321;BMP180;5715;48.234;14.320;2024-02-23T06:47:23;96982.00;;;15.30
11321;BMP180;5715;48.234;14.320;2024-02-23T06:50:12;96993.00;;;15.10
11321;BMP180;5715;48.234;14.320;2024-02-23T06:53:00;96999.00;;;14.80
11321;BMP180;5715;48.234;14.320;2024-02-23T06:55:48;97009.00;;;15.20
11321;BMP180;5715;48.234;14.320;2024-02-23T06:58:35;97023.00;;;14.90
11321;BMP180;5715;48.234;14.320;2024-02-23T07:01:23;97024.00;;;15.20
11321;BMP180;5715;48.234;14.320;2024-02-23T07:04:11;97022.00;;;15.00
11321;BMP180;5715;48.234;14.320;2024-02-23T07:06:59;97021.00;;;15.30
11321;BMP180;5715;48.234;14.320;2024-02-23T07:09:46;97019.00;;;15.20
11321;BMP180;5715;48.234;14.320;2024-02-23T07:12:35;97025.00;;;15.20
11321;BMP180;5715;48.234;14.320;2024-02-23T07:15:22;97023.00;;;15.10
11321;BMP180;5715;48.234;14.320;2024-02-23T07:18:10;97030.00;;;15.00
11321;BMP180;5715;48.234;14.320;2024-02-23T07:20:57;97043.00;;;15.10
11321;BMP180;5715;48.234;14.320;2024-02-23T07:23:45;97041.00;;;15.20
11321;BMP180;5715;48.234;14.320;2024-02-23T07:26:33;97033.00;;;15.10
11321;BMP180;5715;48.234;14.320;2024-02-23T07:29:21;97040.00;;;14.90
11321;BMP180;5715;48.234;14.320;2024-02-23T07:32:08;97023.00;;;15.10
11321;BMP180;5715;48.234;14.320;2024-02-23T07:34:56;97019.00;;;15.20
11321;BMP180;5715;48.234;14.320;2024-02-23T07:37:44;97015.00;;;15.30
11321;BMP180;5715;48.234;14.320;2024-02-23T07:40:31;97012.00;;;15.30
11321;BMP180;5715;48.234;14.320;2024-02-23T07:43:19;97009.00;;;15.50
11321;BMP180;5715;48.234;14.320;2024-02-23T07:46:07;97014.00;;;15.60
11321;BMP180;5715;48.234;14.320;2024-02-23T07:48:56;97011.00;;;15.50
11321;BMP180;5715;48.234;14.320;2024-02-23T07:51:44;97023.00;;;15.80
11321;BMP180;5715;48.234;14.320;2024-02-23T07:54:31;97030.00;;;15.80
11321;BMP180;5715;48.234;14.320;2024-02-23T07:57:19;97014.00;;;15.60
11321;BMP180;5715;48.234;14.320;2024-02-23T08:00:08;97017.00;;;15.90
11321;BMP180;5715;48.234;14.320;2024-02-23T08:02:57;97021.00;;;15.90
11321;BMP180;5715;48.234;14.320;2024-02-23T08:05:46;97020.00;;;16.00
11321;BMP180;5715;48.234;14.320;2024-02-23T08:08:33;97023.00;;;16.00
11321;BMP180;5715;48.234;14.320;2024-02-23T08:11:24;97029.00;;;15.90
11321;BMP180;5715;48.234;14.320;2024-02-23T08:14:12;97037.00;;;16.10
11321;BMP180;5715;48.234;14.320;2024-02-23T08:17:00;97030.00;;;15.80
11321;BMP180;5715;48.234;14.320;2024-02-23T08:19:48;97033.00;;;15.80
11321;BMP180;5715;48.234;14.320;2024-02-23T08:22:35;97023.00;;;16.00
11321;BMP180;5715;48.234;14.320;2024-02-23T08:25:23;97029.00;;;16.00
11321;BMP180;5715;48.234;14.320;2024-02-23T08:28:11;97030.00;;;16.30
11321;BMP180;5715;48.234;14.320;2024-02-23T08:30:58;97028.00;;;16.40
11321;BMP180;5715;48.234;14.320;2024-02-23T08:33:46;97025.00;;;16.40
11321;BMP180;5715;48.234;14.320;2024-02-23T08:36:34;97030.00;;;16.30
11321;BMP180;5715;48.234;14.320;2024-02-23T08:39:22;97025.00;;;16.60
11321;BMP180;5715;48.234;14.320;2024-02-23T08:42:10;97018.00;;;16.80
11321;BMP180;5715;48.234;14.320;2024-02-23T08:44:58;97009.00;;;16.60
11321;BMP180;5715;48.234;14.320;2024-02-23T08:47:45;97010.00;;;16.80
11321;BMP180;5715;48.234;14.320;2024-02-23T08:50:33;97014.00;;;16.70
11321;BMP180;5715;48.234;14.320;2024-02-23T08:53:21;97019.00;;;17.00
11321;BMP180;5715;48.234;14.320;2024-02-23T08:56:11;97020.00;;;17.00
11321;BMP180;5715;48.234;14.320;2024-02-23T08:58:59;97024.00;;;17.20
11321;BMP180;5715;48.234;14.320;2024-02-23T09:01:47;97015.00;;;17.40
11321;BMP180;5715;48.234;14.320;2024-02-23T09:04:34;97012.00;;;17.30
11321;BMP180;5715;48.234;14.320;2024-02-23T09:07:23;97007.00;;;17.90
11321;BMP180;5715;48.234;14.320;2024-02-23T09:10:12;97017.00;;;17.70
11321;BMP180;5715;48.234;14.320;2024-02-23T09:12:59;97012.00;;;18.10
11321;BMP180;5715;48.234;14.320;2024-02-23T09:15:47;97000.00;;;18.20
11321;BMP180;5715;48.234;14.320;2024-02-23T09:18:35;97003.00;;;18.30
11321;BMP180;5715;48.234;14.320;2024-02-23T09:21:23;96989.00;;;17.70
11321;BMP180;5715;48.234;14.320;2024-02-23T09:24:11;96987.00;;;17.90
11321;BMP180;5715;48.234;14.320;2024-02-23T09:26:59;96976.00;;;18.00
11321;BMP180;5715;48.234;14.320;2024-02-23T09:29:47;96976.00;;;17.80
11321;BMP180;5715;48.234;14.320;2024-02-23T09:32:35;96980.00;;;17.80
11321;BMP180;5715;48.234;14.320;2024-02-23T09:35:23;96983.00;;;17.60
11321;BMP180;5715;48.234;14.320;2024-02-23T09:38:10;96982.00;;;17.90
11321;BMP180;5715;48.234;14.320;2024-02-23T09:40:59;96992.00;;;18.10
11321;BMP180;5715;48.234;14.320;2024-02-23T09:43:49;96989.00;;;18.20
11321;BMP180;5715;48.234;14.320;2024-02-23T09:46:37;96988.00;;;18.30
11321;BMP180;5715;48.234;14.320;2024-02-23T09:49:26;96976.00;;;18.60
11321;BMP180;5715;48.234;14.320;2024-02-23T09:52:13;96978.00;;;18.70
11321;BMP180;5715;48.234;14.320;2024-02-23T09:55:01;96979.00;;;19.00
11321;BMP180;5715;48.234;14.320;2024-02-23T09:57:55;96992.00;;;19.20
11321;BMP180;5715;48.234;14.320;2024-02-23T10:00:45;96991.00;;;19.00
11321;BMP180;5715;48.234;14.320;2024-02-23T10:03:33;96997.00;;;19.10
11321;BMP180;5715;48.234;14.320;2024-02-23T10:06:21;97004.00;;;19.10
11321;BMP180;5715;48.234;14.320;2024-02-23T10:09:08;97007.00;;;19.30
11321;BMP180;5715;48.234;14.320;2024-02-23T10:11:56;97013.00;;;19.40
11321;BMP180;5715;48.234;14.320;2024-02-23T10:14:44;97022.00;;;19.30
11321;BMP180;5715;48.234;14.320;2024-02-23T10:17:32;97021.00;;;19.10
11321;BMP180;5715;48.234;14.320;2024-02-23T10:20:23;97013.00;;;18.70
11321;BMP180;5715;48.234;14.320;2024-02-23T10:23:12;97012.00;;;19.00
11321;BMP180;5715;48.234;14.320;2024-02-23T10:25:59;97011.00;;;18.80
11321;BMP180;5715;48.234;14.320;2024-02-23T10:28:47;97003.00;;;19.00
11321;BMP180;5715;48.234;14.320;2024-02-23T10:31:36;96999.00;;;18.80
11321;BMP180;5715;48.234;14.320;2024-02-23T10:34:28;96999.00;;;19.40
11321;BMP180;5715;48.234;14.320;2024-02-23T10:37:17;96983.00;;;19.10
11321;BMP180;5715;48.234;14.320;2024-02-23T10:40:08;96989.00;;;18.80
11321;BMP180;5715;48.234;14.320;2024-02-23T10:43:02;96985.00;;;19.10
11321;BMP180;5715;48.234;14.320;2024-02-23T10:45:51;96990.00;;;18.80
11321;BMP180;5715;48.234;14.320;2024-02-23T10:48:42;96984.00;;;18.30
11321;BMP180;5715;48.234;14.320;2024-02-23T10:51:32;96992.00;;;18.30
11321;BMP180;5715;48.234;14.320;2024-02-23T10:54:20;96997.00;;;18.10
11321;BMP180;5715;48.234;14.320;2024-02-23T10:57:09;96992.00;;;18.00
11321;BMP180;5715;48.234;14.320;2024-02-23T10:59:58;96986.00;;;18.00
11321;BMP180;5715;48.234;14.320;2024-02-23T11:02:52;96986.00;;;18.10
11321;BMP180;5715;48.234;14.320;2024-02-23T11:05:40;96988.00;;;18.30
11321;BMP180;5715;48.234;14.320;2024-02-23T11:08:37;96985.00;;;18.10
11321;BMP180;5715;48.234;14.320;2024-02-23T11:11:25;96985.00;;;18.10
11321;BMP180;5715;48.234;14.320;2024-02-23T11:14:12;97000.00;;;17.50
11321;BMP180;5715;48.234;14.320;2024-02-23T11:17:01;96998.00;;;17.50
11321;BMP180;5715;48.234;14.320;2024-02-23T11:19:54;96986.00;;;17.80
11321;BMP180;5715;48.234;14.320;2024-02-23T11:22:42;96984.00;;;17.80
11321;BMP180;5715;48.234;14.320;2024-02-23T11:25:30;96979.00;;;17.90
11321;BMP180;5715;48.234;14.320;2024-02-23T11:28:24;96976.00;;;17.80
11321;BMP180;5715;48.234;14.320;2024-02-23T11:31:13;96979.00;;;17.90
11321;BMP180;5715;48.234;14.320;2024-02-23T11:34:01;96984.00;;;17.90
11321;BMP180;5715;48.234;14.320;2024-02-23T11:36:51;96979.00;;;17.90
11321;BMP180;5715;48.234;14.320;2024-02-23T11:39:40;96977.00;;;17.80
11321;BMP180;5715;48.234;14.320;2024-02-23T11:42:28;96981.00;;;17.90
11321;BMP180;5715;48.234;14.320;2024-02-23T11:45:16;96981.00;;;18.30
11321;BMP180;5715;48.234;14.320;2024-02-23T11:48:06;96981.00;;;18.10
11321;BMP180;5715;48.234;14.320;2024-02-23T11:50:54;96974.00;;;17.70
11321;BMP180;5715;48.234;14.320;2024-02-23T11:53:43;96965.00;;;17.90
11321;BMP180;5715;48.234;14.320;2024-02-23T11:56:31;96964.00;;;18.30
11321;BMP180;5715;48.234;14.320;2024-02-23T11:59:20;96970.00;;;18.30
11321;BMP180;5715;48.234;14.320;2024-02-23T12:02:08;96969.00;;;18.30
11321;BMP180;5715;48.234;14.320;2024-02-23T12:04:56;96968.00;;;18.20
11321;BMP180;5715;48.234;14.320;2024-02-23T12:07:44;96963.00;;;18.20
11321;BMP180;5715;48.234;14.320;2024-02-23T12:10:34;96959.00;;;18.00
11321;BMP180;5715;48.234;14.320;2024-02-23T12:13:23;96965.00;;;18.00
11321;BMP180;5715;48.234;14.320;2024-02-23T12:16:11;96952.00;;;18.20
11321;BMP180;5715;48.234;14.320;2024-02-23T12:19:01;96945.00;;;17.90
11321;BMP180;5715;48.234;14.320;2024-02-23T12:21:50;96942.00;;;18.00
11321;BMP180;5715;48.234;14.320;2024-02-23T12:24:38;96936.00;;;18.40
11321;BMP180;5715;48.234;14.320;2024-02-23T12:27:27;96947.00;;;18.30
11321;BMP180;5715;48.234;14.320;2024-02-23T12:30:16;96954.00;;;17.80
11321;BMP180;5715;48.234;14.320;2024-02-23T12:33:06;96947.00;;;17.70
11321;BMP180;5715;48.234;14.320;2024-02-23T12:35:59;96955.00;;;17.80
11321;BMP180;5715;48.234;14.320;2024-02-23T12:38:46;96964.00;;;17.60
11321;BMP180;5715;48.234;14.320;2024-02-23T12:41:34;96964.00;;;17.30
11321;BMP180;5715;48.234;14.320;2024-02-23T12:44:22;96972.00;;;17.30
11321;BMP180;5715;48.234;14.320;2024-02-23T12:47:10;96972.00;;;17.00
11321;BMP180;5715;48.234;14.320;2024-02-23T12:49:57;96970.00;;;16.80
11321;BMP180;5715;48.234;14.320;2024-02-23T12:52:45;96969.00;;;16.80
11321;BMP180;5715;48.234;14.320;2024-02-23T12:55:34;96964.00;;;16.50
11321;BMP180;5715;48.234;14.320;2024-02-23T12:58:24;96970.00;;;16.80
11321;BMP180;5715;48.234;14.320;2024-02-23T13:01:12;96970.00;;;16.90
11321;BMP180;5715;48.234;14.320;2024-02-23T13:04:00;96969.00;;;16.70
11321;BMP180;5715;48.234;14.320;2024-02-23T13:06:48;96964.00;;;16.60
11321;BMP180;5715;48.234;14.320;2024-02-23T13:09:36;96963.00;;;16.50
11321;BMP180;5715;48.234;14.320;2024-02-23T13:12:23;96964.00;;;16.50
11321;BMP180;5715;48.234;14.320;2024-02-23T13:15:11;96956.00;;;16.20
11321;BMP180;5715;48.234;14.320;2024-02-23T13:17:59;96943.00;;;16.70
11321;BMP180;5715;48.234;14.320;2024-02-23T13:20:47;96948.00;;;16.80
11321;BMP180;5715;48.234;14.320;2024-02-23T13:23:35;96946.00;;;16.80
11321;BMP180;5715;48.234;14.320;2024-02-23T13:26:24;96948.00;;;16.90
11321;BMP180;5715;48.234;14.320;2024-02-23T13:29:11;96948.00;;;16.90
11321;BMP180;5715;48.234;14.320;2024-02-23T13:31:59;96953.00;;;16.60
11321;BMP180;5715;48.234;14.320;2024-02-23T13:34:47;96954.00;;;16.90
11321;BMP180;5715;48.234;14.320;2024-02-23T13:37:34;96948.00;;;16.80
11321;BMP180;5715;48.234;14.320;2024-02-23T13:40:22;96944.00;;;16.80
11321;BMP180;5715;48.234;14.320;2024-02-23T13:43:10;96944.00;;;17.00
11321;BMP180;5715;48.234;14.320;2024-02-23T13:45:57;96943.00;;;16.70
11321;BMP180;5715;48.234;14.320;2024-02-23T13:48:45;96941.00;;;16.40
11321;BMP180;5715;48.234;14.320;2024-02-23T13:51:33;96942.00;;;16.50
11321;BMP180;5715;48.234;14.320;2024-02-23T13:54:21;96938.00;;;16.30
11321;BMP180;5715;48.234;14.320;2024-02-23T13:57:09;96940.00;;;16.30
11321;BMP180;5715;48.234;14.320;2024-02-23T13:59:56;96944.00;;;16.20
11321;BMP180;5715;48.234;14.320;2024-02-23T14:02:44;96935.00;;;16.10
11321;BMP180;5715;48.234;14.320;2024-02-23T14:05:33;96939.00;;;16.20
11321;BMP180;5715;48.234;14.320;2024-02-23T14:08:20;96931.00;;;15.60
11321;BMP180;5715;48.234;14.320;2024-02-23T14:11:08;96925.00;;;15.80
11321;BMP180;5715;48.234;14.320;2024-02-23T14:13:57;96919.00;;;15.90
11321;BMP180;5715;48.234;14.320;2024-02-23T14:16:45;96916.00;;;15.70
11321;BMP180;5715;48.234;14.320;2024-02-23T14:19:32;96901.00;;;15.50
11321;BMP180;5715;48.234;14.320;2024-02-23T14:22:23;96897.00;;;15.90
11321;BMP180;5715;48.234;14.320;2024-02-23T14:25:11;96913.00;;;16.00
11321;BMP180;5715;48.234;14.320;2024-02-23T14:27:58;96917.00;;;15.90
11321;BMP180;5715;48.234;14.320;2024-02-23T14:30:46;96923.00;;;15.70
11321;BMP180;5715;48.234;14.320;2024-02-23T14:33:34;96921.00;;;15.70
11321;BMP180;5715;48.234;14.320;2024-02-23T14:36:21;96913.00;;;15.90
11321;BMP180;5715;48.234;14.320;2024-02-23T14:39:09;96914.00;;;15.80
11321;BMP180;5715;48.234;14.320;2024-02-23T14:42:03;96916.00;;;15.80
11321;BMP180;5715;48.234;14.320;2024-02-23T14:44:56;96931.00;;;15.60
11321;BMP180;5715;48.234;14.320;2024-02-23T14:47:43;96929.00;;;15.60
11321;BMP180;5715;48.234;14.320;2024-02-23T14:50:33;96925.00;;;15.50
11321;BMP180;5715;48.234;14.320;2024-02-23T14:53:21;96932.00;;;15.40
11321;BMP180;5715;48.234;14.320;2024-02-23T14:56:10;96933.00;;;15.30
11321;BMP180;5715;48.234;14.320;2024-02-23T14:58:57;96933.00;;;15.30
11321;BMP180;5715;48.234;14.320;2024-02-23T15:01:45;96934.00;;;14.90
11321;BMP180;5715;48.234;14.320;2024-02-23T15:04:33;96930.00;;;15.00
11321;BMP180;5715;48.234;14.320;2024-02-23T15:07:21;96935.00;;;15.20
11321;BMP180;5715;48.234;14.320;2024-02-23T15:10:09;96933.00;;;14.90
11321;BMP180;5715;48.234;14.320;2024-02-23T15:12:56;96932.00;;;14.90
11321;BMP180;5715;48.234;14.320;2024-02-23T15:15:44;96930.00;;;14.90
11321;BMP180;5715;48.234;14.320;2024-02-23T15:18:32;96938.00;;;15.00
11321;BMP180;5715;48.234;14.320;2024-02-23T15:21:20;96927.00;;;14.80
11321;BMP180;5715;48.234;14.320;2024-02-23T15:24:07;96927.00;;;14.80
11321;BMP180;5715;48.234;14.320;2024-02-23T15:26:55;96922.00;;;14.80
11321;BMP180;5715;48.234;14.320;2024-02-23T15:29:43;96926.00;;;14.70
11321;BMP180;5715;48.234;14.320;2024-02-23T15:32:31;96934.00;;;14.80
11321;BMP180;5715;48.234;14.320;2024-02-23T15:35:19;96931.00;;;14.50
11321;BMP180;5715;48.234;14.320;2024-02-23T15:38:08;96927.00;;;14.70
11321;BMP180;5715;48.234;14.320;2024-02-23T15:40:55;96934.00;;;14.70
11321;BMP180;5715;48.234;14.320;2024-02-23T15:43:43;96933.00;;;14.70
11321;BMP180;5715;48.234;14.320;2024-02-23T15:46:31;96936.00;;;14.40
11321;BMP180;5715;48.234;14.320;2024-02-23T15:49:18;96935.00;;;14.80
11321;BMP180;5715;48.234;14.320;2024-02-23T15:52:26;96940.00;;;14.50
11321;BMP180;5715;48.234;14.320;2024-02-23T15:55:14;96941.00;;;14.60
11321;BMP180;5715;48.234;14.320;2024-02-23T15:58:02;96945.00;;;14.50
11321;BMP180;5715;48.234;14.320;2024-02-23T16:00:51;96945.00;;;14.40
11321;BMP180;5715;48.234;14.320;2024-02-23T16:03:41;96935.00;;;14.20
11321;BMP180;5715;48.234;14.320;2024-02-23T16:06:29;96928.00;;;14.20
11321;BMP180;5715;48.234;14.320;2024-02-23T16:09:20;96940.00;;;14.20